createdAt,value
2018-03-19T00:00:32.992Z,1.70
2018-03-19T00:03:04.785Z,1.70
2018-03-19T00:05:36.093Z,1.66
2018-03-19T00:08:08.084Z,1.66
2018-03-19T00:10:40.852Z,1.72
2018-03-19T00:13:12.916Z,1.65
2018-03-19T00:15:44.855Z,1.67
2018-03-19T00:18:17.709Z,1.67
2018-03-19T00:20:49.806Z,1.69
2018-03-19T00:23:21.630Z,1.67
2018-03-19T00:25:53.315Z,1.61
2018-03-19T00:28:26.494Z,1.62
2018-03-19T00:30:59.266Z,1.61
2018-03-19T00:33:31.843Z,1.47
2018-03-19T00:36:03.368Z,1.57
2018-03-19T00:38:35.182Z,1.60
2018-03-19T00:41:07.511Z,1.58
2018-03-19T00:43:39.605Z,1.56
2018-03-19T00:46:13.424Z,1.73
2018-03-19T00:48:45.617Z,1.67
2018-03-19T00:51:18.340Z,1.69
2018-03-19T00:53:53.898Z,1.59
2018-03-19T00:56:27.118Z,1.60
2018-03-19T00:58:59.522Z,1.56
2018-03-19T01:01:34.099Z,1.52
2018-03-19T01:04:06.655Z,1.56
2018-03-19T01:06:38.689Z,1.52
2018-03-19T01:09:11.436Z,1.45
2018-03-19T01:11:44.007Z,1.52
2018-03-19T01:14:15.545Z,1.53
2018-03-19T01:16:47.641Z,1.54
2018-03-19T01:19:20.199Z,1.47
2018-03-19T01:21:52.757Z,1.45
2018-03-19T01:24:35.656Z,1.35
2018-03-19T01:27:13.522Z,1.31
2018-03-19T01:29:44.853Z,1.24
2018-03-19T01:32:17.245Z,1.21
2018-03-19T01:34:49.002Z,1.22
2018-03-19T01:37:21.355Z,1.24
2018-03-19T01:39:53.409Z,1.19
2018-03-19T01:42:25.031Z,1.26
2018-03-19T01:44:57.336Z,1.17
2018-03-19T01:47:30.186Z,1.14
2018-03-19T01:50:02.318Z,1.09
2018-03-19T01:52:41.962Z,1.09
2018-03-19T01:55:13.645Z,1.15
2018-03-19T01:57:46.207Z,1.16
2018-03-19T02:00:19.738Z,1.12
2018-03-19T02:02:51.629Z,1.15
2018-03-19T02:05:24.043Z,1.07
2018-03-19T02:07:55.711Z,1.09
2018-03-19T02:10:27.805Z,1.15
2018-03-19T02:12:59.768Z,1.10
2018-03-19T02:15:31.782Z,1.09
2018-03-19T02:18:04.665Z,1.06
2018-03-19T02:20:36.246Z,0.97
2018-03-19T02:23:08.873Z,1.03
2018-03-19T02:25:40.612Z,0.99
2018-03-19T02:28:13.348Z,0.90
2018-03-19T02:30:46.175Z,0.84
2018-03-19T02:33:18.900Z,0.91
2018-03-19T02:35:50.619Z,0.94
2018-03-19T02:38:22.745Z,0.93
2018-03-19T02:40:54.928Z,0.90
2018-03-19T02:43:26.984Z,0.88
2018-03-19T02:45:59.785Z,0.89
2018-03-19T02:48:31.626Z,0.82
2018-03-19T02:51:03.358Z,0.82
2018-03-19T02:53:35.777Z,0.88
2018-03-19T02:56:08.181Z,0.81
2018-03-19T02:58:39.915Z,0.84
2018-03-19T03:01:11.691Z,0.83
2018-03-19T03:03:43.457Z,0.88
2018-03-19T03:06:15.051Z,0.88
2018-03-19T03:08:47.231Z,0.81
2018-03-19T03:11:20.392Z,0.79
2018-03-19T03:13:52.489Z,0.71
2018-03-19T03:16:31.262Z,0.77
2018-03-19T03:19:03.557Z,0.80
2018-03-19T03:21:41.835Z,0.94
2018-03-19T03:24:16.672Z,0.91
2018-03-19T03:26:48.468Z,0.88
2018-03-19T03:29:21.526Z,0.77
2018-03-19T03:31:53.323Z,0.81
2018-03-19T03:34:31.241Z,0.79
2018-03-19T03:37:02.468Z,0.75
2018-03-19T03:39:33.378Z,0.80
2018-03-19T03:42:04.752Z,0.79
2018-03-19T03:44:36.508Z,0.84
2018-03-19T03:47:08.286Z,0.79
2018-03-19T03:49:40.333Z,0.79
2018-03-19T03:52:12.104Z,0.70
2018-03-19T03:54:43.011Z,0.66
2018-03-19T03:57:14.827Z,0.57
2018-03-19T03:59:46.230Z,0.61
2018-03-19T04:02:19.865Z,0.57
2018-03-19T04:04:50.948Z,0.56
2018-03-19T04:07:23.307Z,0.55
2018-03-19T04:09:54.871Z,0.40
2018-03-19T04:12:26.187Z,0.51
2018-03-19T04:14:57.235Z,0.41
2018-03-19T04:17:30.048Z,0.32
2018-03-19T04:20:01.857Z,0.29
2018-03-19T04:22:33.024Z,0.31
2018-03-19T04:25:04.418Z,0.29
2018-03-19T04:27:47.749Z,0.25
2018-03-19T04:30:20.112Z,0.26
2018-03-19T04:32:51.444Z,0.15
2018-03-19T04:35:24.730Z,0.12
2018-03-19T04:37:57.345Z,0.12
2018-03-19T04:40:29.171Z,0.06
2018-03-19T04:43:01.256Z,0.14
2018-03-19T04:45:32.927Z,0.02
2018-03-19T04:48:03.865Z,0.06
2018-03-19T04:50:36.180Z,0.07
2018-03-19T04:53:07.612Z,0.09
2018-03-19T04:55:40.587Z,0.02
2018-03-19T04:58:11.516Z,-0.03
2018-03-19T05:00:42.984Z,-0.07
2018-03-19T05:03:23.328Z,-0.13
2018-03-19T05:05:55.299Z,-0.10
2018-03-19T05:08:26.073Z,-0.22
2018-03-19T05:10:57.801Z,-0.25
2018-03-19T05:13:30.005Z,-0.23
2018-03-19T05:16:02.263Z,-0.16
2018-03-19T05:18:34.360Z,-0.15
2018-03-19T05:21:05.573Z,-0.19
2018-03-19T05:23:37.199Z,-0.22
2018-03-19T05:26:09.036Z,-0.22
2018-03-19T05:28:40.214Z,-0.25
2018-03-19T05:31:11.993Z,-0.27
2018-03-19T05:33:43.298Z,-0.21
2018-03-19T05:36:14.749Z,-0.25
2018-03-19T05:38:47.525Z,-0.26
2018-03-19T05:41:19.225Z,-0.27
2018-03-19T05:43:50.499Z,-0.24
2018-03-19T05:46:22.681Z,-0.26
2018-03-19T05:48:53.903Z,-0.26
2018-03-19T05:51:25.690Z,-0.33
2018-03-19T05:53:58.271Z,-0.31
2018-03-19T05:56:30.632Z,-0.30
2018-03-19T05:59:03.293Z,-0.22
2018-03-19T06:01:36.642Z,-0.30
2018-03-19T06:04:08.835Z,-0.26
2018-03-19T06:06:43.967Z,-0.23
2018-03-19T06:09:16.019Z,-0.21
2018-03-19T06:11:50.099Z,-0.15
2018-03-19T06:14:24.773Z,-0.02
2018-03-19T06:16:58.982Z,-0.14
2018-03-19T06:19:34.214Z,-0.15
2018-03-19T06:22:08.239Z,-0.08
2018-03-19T06:24:46.727Z,0.02
2018-03-19T06:27:18.387Z,0.04
2018-03-19T06:29:50.587Z,0.08
2018-03-19T06:32:24.031Z,0.11
2018-03-19T06:34:56.801Z,0.09
2018-03-19T06:37:29.571Z,0.10
2018-03-19T06:40:01.852Z,0.29
2018-03-19T06:42:35.201Z,0.37
2018-03-19T06:45:13.168Z,0.30
2018-03-19T06:47:46.829Z,0.31
2018-03-19T06:50:21.991Z,0.44
2018-03-19T06:52:54.900Z,0.57
2018-03-19T06:55:27.699Z,0.50
2018-03-19T06:58:00.377Z,0.54
2018-03-19T07:00:44.615Z,0.48
2018-03-19T07:03:22.260Z,0.41
2018-03-19T07:05:55.140Z,0.50
2018-03-19T07:08:29.701Z,0.33
2018-03-19T07:11:10.554Z,0.33
2018-03-19T07:13:42.189Z,0.50
2018-03-19T07:16:14.487Z,0.45
2018-03-19T07:18:58.167Z,0.73
2018-03-19T07:21:36.407Z,1.05
2018-03-19T07:24:12.837Z,1.27
2018-03-19T07:26:46.367Z,1.74
2018-03-19T07:29:20.793Z,2.07
2018-03-19T07:31:54.610Z,2.49
2018-03-19T07:34:29.670Z,2.77
2018-03-19T07:37:05.607Z,3.00
2018-03-19T07:39:39.980Z,3.33
2018-03-19T07:42:16.666Z,3.26
2018-03-19T07:44:49.347Z,3.74
2018-03-19T07:47:22.223Z,3.41
2018-03-19T07:49:56.666Z,3.34
2018-03-19T07:55:22.044Z,3.83
2018-03-19T07:57:53.981Z,3.70
2018-03-19T08:00:38.927Z,3.66
2018-03-19T08:03:11.257Z,3.54
2018-03-19T08:05:43.161Z,3.57
2018-03-19T08:08:18.049Z,3.37
2018-03-19T08:10:51.890Z,3.21
2018-03-19T08:13:23.928Z,3.37
2018-03-19T08:15:56.516Z,3.36
2018-03-19T08:18:29.824Z,3.50
2018-03-19T08:21:04.998Z,3.43
2018-03-19T08:23:38.149Z,3.72
2018-03-19T08:26:11.126Z,4.00
2018-03-19T08:28:44.715Z,4.09
2018-03-19T08:31:18.539Z,4.17
2018-03-19T08:33:50.456Z,3.66
2018-03-19T08:36:23.731Z,3.59
2018-03-19T08:38:56.031Z,3.85
2018-03-19T08:41:29.373Z,4.08
2018-03-19T08:44:01.736Z,3.77
2018-03-19T08:46:33.741Z,3.86
2018-03-19T08:49:06.504Z,3.59
2018-03-19T08:51:39.206Z,4.09
2018-03-19T08:54:11.070Z,3.95
2018-03-19T08:56:42.942Z,4.12
2018-03-19T08:59:18.965Z,3.95
2018-03-19T09:01:52.024Z,3.96
2018-03-19T09:04:24.924Z,4.21
2018-03-19T09:06:58.192Z,4.06
2018-03-19T09:09:32.050Z,4.31
2018-03-19T09:12:12.039Z,4.54
2018-03-19T09:14:44.551Z,4.78
2018-03-19T09:17:24.610Z,5.18
2018-03-19T09:20:00.448Z,5.40
2018-03-19T09:22:36.113Z,5.05
2018-03-19T09:27:44.590Z,4.66
2018-03-19T09:30:19.664Z,5.09
2018-03-19T09:32:52.241Z,5.22
2018-03-19T09:35:25.729Z,5.33
2018-03-19T09:37:57.316Z,5.74
2018-03-19T09:40:38.017Z,5.94
2018-03-19T09:43:14.445Z,5.44
2018-03-19T09:45:46.283Z,5.48
2018-03-19T09:48:18.462Z,5.56
2018-03-19T09:51:01.926Z,5.50
2018-03-19T09:53:40.788Z,6.08
2018-03-19T09:56:15.532Z,6.60
2018-03-19T09:58:58.387Z,6.88
2018-03-19T10:01:32.537Z,6.18
2018-03-19T10:04:08.475Z,5.88
2018-03-19T10:06:44.987Z,6.07
2018-03-19T10:09:16.446Z,6.47
2018-03-19T10:11:48.774Z,6.53
2018-03-19T10:14:20.634Z,6.84
2018-03-19T10:16:54.731Z,7.47
2018-03-19T10:19:27.842Z,7.55
2018-03-19T10:21:59.394Z,7.79
2018-03-19T10:24:31.762Z,7.70
2018-03-19T10:27:03.748Z,7.67
2018-03-19T10:29:40.432Z,8.14
2018-03-19T10:32:14.333Z,8.04
2018-03-19T10:34:48.068Z,7.93
2018-03-19T10:37:20.471Z,8.12
2018-03-19T10:40:04.241Z,8.15
2018-03-19T10:42:38.679Z,7.96
2018-03-19T10:45:14.288Z,7.93
2018-03-19T10:47:48.332Z,8.02
2018-03-19T10:50:21.242Z,7.64
2018-03-19T10:52:55.589Z,8.00
2018-03-19T10:55:29.086Z,8.01
2018-03-19T10:58:02.123Z,7.64
2018-03-19T11:00:37.649Z,7.52
2018-03-19T11:03:17.035Z,7.65
2018-03-19T11:05:51.977Z,8.45
2018-03-19T11:08:28.717Z,8.38
2018-03-19T11:11:02.513Z,8.43
2018-03-19T11:13:42.587Z,8.43
2018-03-19T11:16:19.636Z,8.22
2018-03-19T11:18:54.499Z,7.75
2018-03-19T11:21:28.815Z,7.81
2018-03-19T11:24:00.759Z,7.96
2018-03-19T11:26:32.994Z,8.39
2018-03-19T11:29:04.760Z,8.64
2018-03-19T11:31:36.538Z,9.19
2018-03-19T11:34:08.303Z,9.47
2018-03-19T11:36:39.803Z,9.72
2018-03-19T11:39:14.088Z,9.35
2018-03-19T11:41:47.479Z,9.06
2018-03-19T11:44:19.664Z,9.28
2018-03-19T11:46:52.534Z,8.80
2018-03-19T11:49:25.097Z,9.01
2018-03-19T11:51:57.048Z,9.06
2018-03-19T11:54:28.807Z,9.35
2018-03-19T11:57:01.471Z,9.32
2018-03-19T11:59:36.068Z,9.51
2018-03-19T12:02:08.270Z,9.03
2018-03-19T12:04:39.807Z,8.84
2018-03-19T12:07:11.478Z,9.01
2018-03-19T12:09:43.449Z,9.17
2018-03-19T12:12:19.508Z,8.97
2018-03-19T12:15:29.922Z,8.82
2018-03-19T12:18:02.045Z,8.80
2018-03-19T12:20:35.675Z,8.95
2018-03-19T12:23:07.778Z,8.14
2018-03-19T12:25:40.015Z,8.04
2018-03-19T12:28:11.053Z,8.51
2018-03-19T12:30:44.943Z,8.89
2018-03-19T12:33:18.757Z,9.01
2018-03-19T12:35:56.766Z,9.02
2018-03-19T12:38:36.349Z,9.16
2018-03-19T12:41:09.047Z,9.33
2018-03-19T12:43:43.487Z,9.04
2018-03-19T12:46:15.965Z,9.18
2018-03-19T12:48:50.238Z,9.26
2018-03-19T12:51:24.367Z,9.26
2018-03-19T12:53:56.701Z,9.20
2018-03-19T12:56:29.360Z,8.91
2018-03-19T12:59:04.884Z,8.87
2018-03-19T13:01:38.738Z,8.43
2018-03-19T13:04:16.302Z,8.58
2018-03-19T13:06:48.758Z,8.59
2018-03-19T13:09:23.718Z,8.72
2018-03-19T13:11:56.716Z,8.53
2018-03-19T13:14:31.921Z,8.71
2018-03-19T13:17:07.865Z,8.82
2018-03-19T13:19:39.988Z,8.86
2018-03-19T13:22:17.227Z,9.03
2018-03-19T13:24:55.888Z,8.94
2018-03-19T13:27:33.645Z,8.90
2018-03-19T13:30:15.893Z,9.04
2018-03-19T13:32:52.654Z,8.83
2018-03-19T13:35:28.089Z,8.63
2018-03-19T13:38:06.858Z,8.70
2018-03-19T13:40:42.161Z,8.52
2018-03-19T13:43:14.867Z,8.65
2018-03-19T13:45:48.495Z,8.45
2018-03-19T13:48:20.656Z,8.22
2018-03-19T13:51:31.589Z,8.21
2018-03-19T13:57:00.867Z,7.74
2018-03-19T13:59:33.201Z,7.87
2018-03-19T14:02:07.332Z,8.07
2018-03-19T14:04:39.720Z,7.97
2018-03-19T14:07:41.818Z,7.91
2018-03-19T14:10:16.468Z,7.60
2018-03-19T14:13:05.485Z,7.63
2018-03-19T14:15:38.904Z,7.29
2018-03-19T14:18:11.454Z,7.33
2018-03-19T14:20:44.525Z,7.41
2018-03-19T14:23:30.938Z,7.67
2018-03-19T14:28:55.481Z,7.42
2018-03-19T14:34:24.508Z,7.61
2018-03-19T14:37:05.107Z,7.60
2018-03-19T14:39:40.828Z,7.47
2018-03-19T14:42:19.999Z,7.80
2018-03-19T14:44:56.764Z,7.95
2018-03-19T14:47:29.794Z,8.00
2018-03-19T14:50:04.249Z,8.03
2018-03-19T14:52:36.138Z,7.91
2018-03-19T14:55:10.311Z,7.79
2018-03-19T14:57:44.903Z,7.78
2018-03-19T15:00:36.598Z,7.69
2018-03-19T15:03:09.594Z,7.71
2018-03-19T15:05:41.866Z,7.59
2018-03-19T15:08:13.864Z,7.52
2018-03-19T15:10:46.263Z,7.27
2018-03-19T15:13:17.556Z,7.03
2018-03-19T15:15:53.204Z,6.95
2018-03-19T15:18:29.244Z,6.54
2018-03-19T15:21:02.879Z,6.55
2018-03-19T15:23:35.035Z,6.63
2018-03-19T15:26:06.481Z,6.68
2018-03-19T15:28:38.618Z,6.56
2018-03-19T15:31:12.602Z,6.58
2018-03-19T15:33:45.176Z,6.51
2018-03-19T15:36:17.767Z,6.44
2018-03-19T15:38:49.736Z,6.42
2018-03-19T15:43:56.384Z,6.32
2018-03-19T15:46:28.446Z,6.31
2018-03-19T15:49:25.462Z,6.51
2018-03-19T15:51:57.955Z,6.33
2018-03-19T15:54:31.567Z,6.24
2018-03-19T15:57:09.399Z,6.36
2018-03-19T15:59:42.156Z,6.33
2018-03-19T16:02:13.506Z,6.30
2018-03-19T16:04:46.647Z,6.37
2018-03-19T16:07:19.346Z,6.36
2018-03-19T16:09:51.484Z,6.23
2018-03-19T16:12:31.272Z,6.05
2018-03-19T16:15:07.754Z,6.04
2018-03-19T16:17:41.398Z,5.99
2018-03-19T16:20:12.850Z,5.86
2018-03-19T16:22:44.647Z,5.91
2018-03-19T16:25:16.431Z,5.90
2018-03-19T16:28:08.835Z,5.99
2018-03-19T16:33:33.117Z,5.84
2018-03-19T16:36:04.886Z,5.76
2018-03-19T16:38:36.770Z,5.70
2018-03-19T16:41:07.664Z,5.74
2018-03-19T16:43:39.877Z,5.88
2018-03-19T16:46:13.210Z,5.75
2018-03-19T16:48:47.726Z,5.64
2018-03-19T16:51:25.564Z,5.59
2018-03-19T16:54:02.378Z,5.66
2018-03-19T16:56:36.331Z,5.68
2018-03-19T16:59:09.894Z,5.67
2018-03-19T17:01:44.786Z,5.62
2018-03-19T17:04:16.747Z,5.70
2018-03-19T17:06:51.395Z,5.63
2018-03-19T17:09:28.857Z,5.60
2018-03-19T17:12:13.760Z,5.55
2018-03-19T17:14:50.835Z,5.37
2018-03-19T17:17:24.965Z,5.25
2018-03-19T17:19:56.615Z,5.19
2018-03-19T17:22:31.209Z,5.09
2018-03-19T17:25:07.020Z,5.13
2018-03-19T17:27:39.751Z,5.12
2018-03-19T17:30:17.555Z,5.16
2018-03-19T17:32:52.784Z,5.15
2018-03-19T17:35:40.989Z,5.14
2018-03-19T17:38:15.779Z,5.13
2018-03-19T17:40:47.781Z,5.06
2018-03-19T17:43:24.310Z,4.96
2018-03-19T17:46:05.324Z,4.87
2018-03-19T17:48:40.949Z,4.83
2018-03-19T17:51:14.641Z,4.83
2018-03-19T17:53:46.585Z,4.75
2018-03-19T17:56:56.098Z,4.70
2018-03-19T17:59:28.006Z,4.76
2018-03-19T18:02:03.303Z,4.65
2018-03-19T18:04:37.855Z,4.74
2018-03-19T18:07:13.946Z,4.73
2018-03-19T18:09:46.412Z,4.75
2018-03-19T18:12:30.047Z,4.76
2018-03-19T18:15:17.229Z,4.73
2018-03-19T18:17:50.747Z,4.76
2018-03-19T18:20:25.600Z,4.73
2018-03-19T18:22:59.109Z,4.66
2018-03-19T18:25:35.101Z,4.68
2018-03-19T18:28:10.147Z,4.64
2018-03-19T18:30:48.004Z,4.54
2018-03-19T18:33:21.077Z,4.62
2018-03-19T18:35:53.533Z,4.64
2018-03-19T18:38:25.187Z,4.58
2018-03-19T18:40:57.419Z,4.64
2018-03-19T18:43:37.098Z,4.57
2018-03-19T18:46:11.277Z,4.41
2018-03-19T18:48:44.911Z,4.45
2018-03-19T18:51:17.064Z,4.42
2018-03-19T18:53:48.727Z,4.33
2018-03-19T18:56:19.887Z,4.30
2018-03-19T19:01:20.635Z,4.36
2018-03-19T19:04:00.892Z,4.34
2018-03-19T19:06:32.752Z,4.30
2018-03-19T19:09:26.142Z,4.30
2018-03-19T19:11:57.261Z,4.25
2018-03-19T19:14:28.740Z,4.04
2018-03-19T19:17:10.087Z,4.10
2018-03-19T19:19:40.991Z,4.02
2018-03-19T19:22:14.012Z,3.99
2018-03-19T19:24:47.798Z,3.98
2018-03-19T19:27:28.416Z,4.00
2018-03-19T19:30:00.163Z,3.85
2018-03-19T19:32:38.691Z,3.82
2018-03-19T19:35:09.634Z,3.75
2018-03-19T19:37:41.451Z,3.77
2018-03-19T19:40:18.115Z,3.73
2018-03-19T19:42:50.126Z,3.70
2018-03-19T19:45:23.831Z,3.72
2018-03-19T19:47:55.206Z,3.76
2018-03-19T19:50:29.337Z,3.77
2018-03-19T19:53:07.509Z,3.71
2018-03-19T19:55:40.204Z,3.78
2018-03-19T19:58:12.627Z,3.79
2018-03-19T20:00:44.023Z,3.78
2018-03-19T20:06:01.344Z,3.65
2018-03-19T20:08:32.885Z,3.53
2018-03-19T20:11:04.809Z,3.56
2018-03-19T20:13:36.224Z,3.54
2018-03-19T20:16:08.954Z,3.46
2018-03-19T20:18:40.808Z,3.40
2018-03-19T20:21:12.765Z,3.38
2018-03-19T20:23:58.406Z,3.45
2018-03-19T20:26:29.373Z,3.48
2018-03-19T20:29:03.526Z,3.46
2018-03-19T20:31:35.314Z,3.47
2018-03-19T20:34:09.077Z,3.40
2018-03-19T20:36:40.677Z,3.41
2018-03-19T20:39:11.661Z,3.40
2018-03-19T20:41:43.084Z,3.44
2018-03-19T20:44:14.288Z,3.47
2018-03-19T20:49:11.623Z,3.37
2018-03-19T20:51:43.965Z,3.40
2018-03-19T20:54:16.645Z,3.37
2018-03-19T20:56:47.733Z,3.44
2018-03-19T20:59:21.056Z,3.40
2018-03-19T21:01:53.862Z,3.34
2018-03-19T21:04:25.087Z,3.36
2018-03-19T21:07:04.034Z,3.37
2018-03-19T21:09:36.017Z,3.34
2018-03-19T21:12:07.099Z,3.41
2018-03-19T21:14:38.766Z,3.45
2018-03-19T21:17:11.334Z,3.46
2018-03-19T21:19:42.543Z,3.50
2018-03-19T21:22:14.129Z,3.44
2018-03-19T21:24:45.494Z,3.51
2018-03-19T21:27:17.738Z,3.48
2018-03-19T21:29:49.090Z,3.20
2018-03-19T21:32:31.190Z,3.63
2018-03-19T21:35:07.460Z,3.58
2018-03-19T21:37:42.301Z,3.53
2018-03-19T21:40:14.660Z,3.54
2018-03-19T21:42:47.203Z,3.62
2018-03-19T21:45:20.558Z,3.66
2018-03-19T21:47:52.441Z,3.55
2018-03-19T21:50:24.996Z,3.65
2018-03-19T21:52:57.173Z,3.66
2018-03-19T21:55:36.612Z,3.62
2018-03-19T21:58:09.937Z,3.53
2018-03-19T22:00:41.398Z,3.49
2018-03-19T22:03:12.952Z,3.59
2018-03-19T22:05:44.804Z,3.63
2018-03-19T22:08:17.137Z,3.60
2018-03-19T22:10:48.214Z,3.52
2018-03-19T22:13:20.940Z,3.36
2018-03-19T22:15:52.850Z,3.56
2018-03-19T22:18:25.086Z,3.65
2018-03-19T22:20:56.654Z,3.71
2018-03-19T22:23:30.114Z,3.69
2018-03-19T22:26:01.780Z,3.57
2018-03-19T22:28:34.446Z,3.54
2018-03-19T22:31:14.089Z,3.59
2018-03-19T22:33:46.025Z,3.64
2018-03-19T22:36:17.322Z,3.52
2018-03-19T22:38:49.531Z,3.51
2018-03-19T22:44:17.315Z,3.49
2018-03-19T22:46:49.120Z,3.50
2018-03-19T22:49:22.346Z,3.34
2018-03-19T22:51:54.388Z,3.35
2018-03-19T22:54:26.303Z,3.30
2018-03-19T22:56:57.390Z,3.24
2018-03-19T22:59:28.446Z,3.21
2018-03-19T23:02:00.092Z,3.25
2018-03-19T23:04:39.733Z,3.26
2018-03-19T23:07:11.561Z,3.30
2018-03-19T23:09:42.569Z,3.37
2018-03-19T23:12:13.508Z,3.41
2018-03-19T23:14:46.063Z,3.38
2018-03-19T23:17:17.731Z,3.45
2018-03-19T23:19:48.828Z,3.40
2018-03-19T23:22:23.133Z,3.42
2018-03-19T23:24:53.964Z,3.38
2018-03-19T23:27:25.041Z,3.35
2018-03-19T23:29:57.444Z,3.35
2018-03-19T23:32:35.876Z,3.26
2018-03-19T23:35:07.481Z,3.14
2018-03-19T23:37:38.562Z,2.97
2018-03-19T23:40:09.642Z,3.03
2018-03-19T23:42:40.863Z,2.98
2018-03-19T23:45:15.105Z,2.91
2018-03-19T23:47:45.948Z,2.87
2018-03-19T23:50:18.294Z,2.80
2018-03-19T23:52:49.618Z,2.75
2018-03-19T23:55:20.755Z,2.91
2018-03-19T23:57:52.018Z,2.79
